Time;durP1;ratioP1;P1;durP2;ratioP2;P2;SDS_P1;SDS_P2;PMS_P1;PMS_P2;Temp;Humidity;BMP_temperature;BMP_pressure;BME280_temperature;BME280_humidity;BME280_pressure;Samples;Min_cycle;Max_cycle;Signal;HPM_P1;HPM_P2
2022/08/12 00:43:36;;;;;;;4.03;3.40;;;;;;;12.45;67.14;97693.86;1709556;83;26299;-76
2022/08/12 00:48:49;;;;;;;4.12;3.35;;;;;;;12.38;67.22;97688.49;1716011;83;26852;-76
2022/08/12 00:51:16;;;;;;;4.03;3.25;;;;;;;12.27;67.32;97695.94;1716277;83;26311;-78
2022/08/12 00:53:43;;;;;;;5.08;3.50;;;;;;;12.27;67.39;97690.52;1716166;83;27335;-77
2022/08/12 00:56:10;;;;;;;6.75;3.58;;;;;;;12.23;67.51;97685.22;1716128;83;25775;-76
2022/08/12 00:58:41;;;;;;;5.33;3.42;;;;;;;12.22;67.66;97686.27;1716268;83;25626;-77
2022/08/12 01:01:08;;;;;;;4.83;3.50;;;;;;;12.23;67.67;97689.28;1712958;83;25840;-78
2022/08/12 01:11:55;;;;;;;5.00;3.77;;;;;;;12.20;67.71;97677.52;1716336;83;25693;-76
2022/08/12 01:14:23;;;;;;;7.83;3.83;;;;;;;12.16;67.76;97680.38;1716341;83;25829;-76
2022/08/12 01:16:55;;;;;;;4.60;3.87;;;;;;;12.15;67.73;97680.06;1716528;83;25788;-76
2022/08/12 01:19:23;;;;;;;5.10;3.98;;;;;;;12.11;67.74;97676.95;1716418;83;27429;-76
2022/08/12 01:22:13;;;;;;;5.95;3.58;;;;;;;12.10;67.82;97673.09;1717236;82;25938;-77
2022/08/12 01:25:18;;;;;;;5.42;3.80;;;;;;;12.10;67.75;97675.80;1717792;83;25735;-76
2022/08/12 01:27:47;;;;;;;4.90;3.50;;;;;;;12.09;67.72;97678.20;1628074;87;25893;-76
2022/08/12 01:30:14;;;;;;;6.00;3.70;;;;;;;12.05;67.78;97668.87;1628216;88;26062;-76
2022/08/12 01:32:42;;;;;;;6.85;3.70;;;;;;;12.02;67.80;97667.94;1628101;88;27442;-76
2022/08/12 01:35:12;;;;;;;8.25;3.87;;;;;;;12.00;67.82;97668.67;1624444;88;25746;-77
2022/08/12 01:38:04;;;;;;;3.90;3.40;;;;;;;11.98;67.89;97669.40;1628287;88;25845;-76
2022/08/12 01:40:34;;;;;;;5.00;3.80;;;;;;;11.96;67.86;97670.95;1627722;87;25687;-76
2022/08/12 01:43:11;;;;;;;4.58;3.50;;;;;;;11.94;67.91;97667.66;1628036;88;25928;-76
2022/08/12 01:45:53;;;;;;;4.22;3.17;;;;;;;11.93;67.91;97667.88;1627690;87;28267;-77
2022/08/12 01:49:05;;;;;;;4.42;3.37;;;;;;;11.82;67.89;97663.44;1567017;90;25312;-77
2022/08/12 01:51:42;;;;;;;4.28;3.40;;;;;;;11.76;68.02;97666.98;1569047;91;25849;-77
2022/08/12 01:54:15;;;;;;;5.55;3.15;;;;;;;11.73;68.24;97667.88;1569073;90;25808;-77
2022/08/12 01:56:58;;;;;;;5.72;3.15;;;;;;;11.69;68.31;97664.80;1569072;90;26523;-76
2022/08/12 01:59:45;;;;;;;6.53;3.15;;;;;;;11.66;68.30;97672.48;1559099;91;28088;-77
2022/08/12 02:02:20;;;;;;;3.27;2.77;;;;;;;11.59;68.31;97672.52;1561097;91;25722;-77
2022/08/12 02:11:21;;;;;;;4.47;3.47;;;;;;;11.55;68.35;97658.58;1528142;93;25873;-77
2022/08/12 02:14:22;;;;;;;4.75;3.65;;;;;;;11.52;68.39;97663.05;1528250;93;26863;-76
2022/08/12 02:17:06;;;;;;;5.33;3.10;;;;;;;11.47;68.47;97664.74;1497787;93;25901;-77
2022/08/12 02:19:57;;;;;;;5.60;3.40;;;;;;;11.43;68.59;97662.14;1526288;93;26395;-76
2022/08/12 02:22:40;;;;;;;4.50;3.10;;;;;;;11.42;68.61;97660.48;1499457;93;25792;-76
2022/08/12 02:25:09;;;;;;;;;;;;;;;11.39;68.65;97660.89;1503900;95;26933;-77
2022/08/12 02:27:44;;;;;;;4.97;3.35;;;;;;;11.35;68.94;97662.38;1494867;95;27523;-77
2022/08/12 02:30:16;;;;;;;5.67;3.50;;;;;;;11.28;68.79;97660.17;1485412;96;25864;-78
2022/08/12 02:32:45;;;;;;;4.90;3.58;;;;;;;11.28;68.82;97663.71;1496384;95;25854;-76
2022/08/12 02:35:16;;;;;;;5.60;3.15;;;;;;;11.27;68.87;97664.75;1485534;96;25862;-77
2022/08/12 02:37:44;;;;;;;3.33;3.02;;;;;;;11.28;68.81;97669.11;1496057;95;25863;-77
2022/08/12 02:40:13;;;;;;;3.62;3.00;;;;;;;11.27;68.77;97667.97;1485396;96;27674;-77
2022/08/12 02:42:54;;;;;;;4.03;3.60;;;;;;;11.22;68.84;97665.91;1495880;95;25833;-77
2022/08/12 02:45:28;;;;;;;3.60;3.30;;;;;;;11.21;68.87;97661.55;1483078;96;25785;-77
2022/08/12 02:47:58;;;;;;;3.52;2.92;;;;;;;11.22;68.77;97662.38;1459025;98;25823;-76
2022/08/12 02:50:28;;;;;;;3.72;3.40;;;;;;;11.20;68.74;97665.28;1458999;98;25817;-76
2022/08/12 02:52:56;;;;;;;5.95;3.60;;;;;;;11.19;68.78;97664.45;1465026;96;27398;-76
2022/08/12 02:55:27;;;;;;;6.40;3.72;;;;;;;11.17;68.79;97663.83;1496305;94;25526;-77
2022/08/12 02:57:54;;;;;;;4.55;3.47;;;;;;;11.14;68.89;97656.13;1519106;94;25860;-77
2022/08/12 03:00:22;;;;;;;4.75;3.25;;;;;;;11.12;68.92;97655.50;1511970;94;25887;-76
2022/08/12 03:02:51;;;;;;;3.62;3.22;;;;;;;11.12;68.94;97650.62;1511991;94;25879;-76
2022/08/12 03:05:22;;;;;;;4.03;3.12;;;;;;;11.11;68.90;97640.33;1603082;89;27403;-77
2022/08/12 03:07:53;;;;;;;4.55;3.58;;;;;;;11.10;68.90;97646.80;1585137;90;25389;-76
2022/08/12 03:10:23;;;;;;;5.90;3.40;;;;;;;11.10;68.85;97639.22;1585275;90;25871;-76
2022/08/12 03:12:56;;;;;;;7.05;3.80;;;;;;;11.08;68.90;97643.47;1587950;90;25794;-76
2022/08/12 03:15:23;;;;;;;7.12;3.87;;;;;;;11.06;68.85;97634.74;1587833;88;25729;-78
2022/08/12 03:18:22;;;;;;;5.87;3.42;;;;;;;11.06;68.92;97646.90;1587757;89;27393;-76
2022/08/12 03:20:48;;;;;;;5.47;3.60;;;;;;;11.05;68.96;97646.58;1585551;89;25368;-77
2022/08/12 03:23:16;;;;;;;4.08;3.17;;;;;;;11.00;68.96;97645.02;1585203;89;26043;-77
2022/08/12 03:25:43;;;;;;;4.28;3.00;;;;;;;10.98;68.89;97639.02;1614749;87;25785;-78
2022/08/12 03:28:48;;;;;;;6.60;3.95;;;;;;;10.96;68.96;97645.14;1756568;81;25714;-77
2022/08/12 03:30:42;;;;;;;4.67;3.50;;;;;;;10.92;68.94;97647.94;1756760;80;27435;-77
2022/08/12 03:33:12;;;;;;;6.08;3.50;;;;;;;10.87;69.14;97634.20;1758922;81;25229;-76
2022/08/12 03:35:41;;;;;;;4.65;3.83;;;;;;;10.87;69.24;97635.55;1758991;81;37091;-78
2022/08/12 03:38:10;;;;;;;6.37;3.35;;;;;;;10.87;69.34;97640.95;1758843;81;25733;-77
2022/08/12 04:00:25;;;;;;;5.80;4.20;;;;;;;10.86;69.91;97614.19;1682609;85;25808;-76
2022/08/12 04:03:00;;;;;;;5.17;4.03;;;;;;;10.88;70.02;97622.89;1682901;85;25775;-75
2022/08/12 04:05:29;;;;;;;7.33;4.40;;;;;;;10.81;70.07;97626.44;1682648;85;25799;-75
2022/08/12 04:13:22;;;;;;;7.35;4.47;;;;;;;10.86;70.23;97642.03;1640161;87;25731;-74
2022/08/12 04:15:49;;;;;;;10.05;4.35;;;;;;;10.89;70.33;97639.41;1638481;87;25834;-75
2022/08/12 04:18:16;;;;;;;5.78;4.00;;;;;;;10.91;70.44;97651.67;1640403;87;26244;-75
2022/08/12 04:20:43;;;;;;;4.83;4.08;;;;;;;10.88;70.51;97649.38;1650266;86;25836;-76
2022/08/12 04:23:11;;;;;;;6.37;4.60;;;;;;;10.91;70.62;97653.02;1659397;86;27401;-75
2022/08/12 04:25:40;;;;;;;9.53;4.90;;;;;;;10.95;70.75;97652.93;1637204;86;26383;-76
2022/08/12 04:28:09;;;;;;;7.28;5.58;;;;;;;10.98;70.76;97659.27;1659676;86;25831;-75
2022/08/12 04:30:38;;;;;;;10.63;7.00;;;;;;;11.00;70.80;97663.92;1659541;86;25958;-76
2022/08/12 04:33:11;;;;;;;13.15;8.15;;;;;;;10.99;70.93;97662.26;1659724;86;25843;-77
2022/08/12 04:35:38;;;;;;;9.28;7.28;;;;;;;11.02;71.15;97655.61;1659679;86;27436;-75
2022/08/12 04:38:06;;;;;;;12.37;6.80;;;;;;;11.03;71.36;97656.77;1659654;85;25722;-75
2022/08/12 04:40:35;;;;;;;11.85;8.10;;;;;;;11.02;71.39;97651.56;1659651;86;25830;-76
2022/08/12 04:43:02;;;;;;;10.90;7.30;;;;;;;11.05;71.60;97657.39;1659766;86;25818;-75
2022/08/12 04:45:31;;;;;;;9.55;7.42;;;;;;;11.09;71.66;97655.11;1659695;86;25364;-75
2022/08/12 04:48:00;;;;;;;11.95;7.90;;;;;;;11.14;71.69;97660.19;1659705;86;28168;-75
2022/08/12 04:50:28;;;;;;;10.65;7.67;;;;;;;11.17;71.76;97655.72;1659545;85;25803;-75
2022/08/12 04:52:55;;;;;;;10.85;8.90;;;;;;;11.17;71.85;97657.08;1659759;86;25408;-76
2022/08/12 04:55:23;;;;;;;13.30;9.10;;;;;;;11.23;71.90;97655.94;1659831;86;26397;-75
2022/08/12 04:57:49;;;;;;;15.48;8.30;;;;;;;11.27;72.00;97656.64;1659864;86;25851;-75
2022/08/12 05:00:16;;;;;;;12.03;8.35;;;;;;;11.32;72.00;97660.08;1659700;86;27427;-75
2022/08/12 05:02:42;;;;;;;10.20;7.62;;;;;;;11.37;72.04;97663.80;1659879;86;25827;-76
2022/08/12 05:05:15;;;;;;;10.88;7.70;;;;;;;11.41;72.17;97664.22;1696941;83;26261;-76
2022/08/12 05:07:42;;;;;;;9.90;7.25;;;;;;;11.45;72.21;97671.70;1695467;83;25701;-74
2022/08/12 05:10:09;;;;;;;7.60;6.80;;;;;;;11.49;72.29;97672.92;1716476;83;25679;-75
2022/08/12 05:12:45;;;;;;;11.18;7.08;;;;;;;11.52;72.34;97670.33;1716258;83;27406;-76
2022/08/12 05:17:42;;;;;;;8.68;6.67;;;;;;;11.55;72.52;97655.88;1707173;84;25767;-75
2022/08/12 05:20:11;;;;;;;9.13;7.20;;;;;;;11.57;72.50;97663.78;1706990;84;25955;-75
2022/08/12 05:22:37;;;;;;;11.10;7.35;;;;;;;11.56;72.60;97662.12;1704027;83;25557;-74
2022/08/12 05:25:05;;;;;;;9.03;6.67;;;;;;;11.60;72.73;97663.33;1665449;85;27633;-76
2022/08/12 05:27:33;;;;;;;9.23;7.58;;;;;;;11.65;72.84;97660.84;1682734;85;25687;-75
2022/08/12 05:30:00;;;;;;;9.65;7.40;;;;;;;11.65;72.87;97658.14;1681164;85;26415;-75
2022/08/12 05:32:27;;;;;;;9.40;7.20;;;;;;;11.70;72.84;97665.62;1681036;85;25671;-75
2022/08/12 05:34:53;;;;;;;8.75;6.35;;;;;;;11.75;72.83;97667.16;1680751;85;25811;-75
2022/08/12 05:37:23;;;;;;;11.65;6.67;;;;;;;11.80;72.88;97669.58;1681053;85;27461;-75
2022/08/12 05:39:50;;;;;;;8.88;6.58;;;;;;;11.85;72.82;97671.10;1670273;85;25783;-75
2022/08/12 05:42:17;;;;;;;7.80;5.95;;;;;;;11.88;72.78;97671.20;1669450;85;25779;-74
2022/08/12 05:44:43;;;;;;;7.25;5.90;;;;;;;11.93;72.97;97670.06;1669353;85;26487;-75
2022/08/12 05:47:13;;;;;;;11.53;8.25;;;;;;;11.93;73.05;97667.35;1669281;85;25831;-75
2022/08/12 05:49:40;;;;;;;12.05;9.43;;;;;;;12.00;73.12;97676.78;1669130;85;28238;-76
2022/08/12 05:52:07;;;;;;;6.05;5.45;;;;;;;12.05;73.15;97671.58;1669191;85;25547;-74
2022/08/12 05:54:37;;;;;;;6.45;5.47;;;;;;;12.11;73.14;97680.17;1669148;85;25838;-75
2022/08/12 05:57:03;;;;;;;6.60;5.12;;;;;;;12.17;73.15;97680.69;1669409;85;25720;-76
2022/08/12 05:59:29;;;;;;;6.35;5.55;;;;;;;12.23;73.05;97676.58;1669454;85;25820;-75
2022/08/12 06:02:06;;;;;;;7.37;4.97;;;;;;;12.30;73.06;97673.86;1669490;85;28164;-75
2022/08/12 06:04:27;;;;;;;5.90;5.30;;;;;;;12.33;72.97;97682.88;1665815;85;25723;-76
2022/08/12 06:06:53;;;;;;;5.55;5.00;;;;;;;12.35;73.25;97681.31;1669552;85;25751;-77
2022/08/12 06:09:21;;;;;;;4.67;4.28;;;;;;;12.41;73.40;97676.41;1669259;85;26025;-77
2022/08/12 06:11:49;;;;;;;5.28;4.78;;;;;;;12.42;73.29;97670.78;1669413;85;25877;-76
2022/08/12 06:14:15;;;;;;;5.62;4.55;;;;;;;12.48;73.50;97669.90;1669344;85;27376;-77
2022/08/12 06:16:45;;;;;;;5.95;4.65;;;;;;;12.55;73.62;97677.48;1669365;85;25786;-76
2022/08/12 06:19:11;;;;;;;5.35;4.67;;;;;;;12.66;73.60;97672.41;1669489;85;25740;-76
2022/08/12 06:21:38;;;;;;;5.03;4.17;;;;;;;12.76;73.64;97670.05;1711380;81;25723;-76
2022/08/12 06:24:06;;;;;;;5.37;4.87;;;;;;;12.84;73.71;97659.77;1726525;83;25414;-76
2022/08/12 06:26:33;;;;;;;5.50;5.00;;;;;;;12.93;73.73;97664.39;1726459;83;27505;-76
2022/08/12 06:29:00;;;;;;;4.50;4.10;;;;;;;13.04;73.76;97666.94;1726391;83;25818;-76
2022/08/12 06:31:27;;;;;;;7.62;4.78;;;;;;;13.13;73.79;97659.66;1726066;83;25307;-76
2022/08/12 06:33:54;;;;;;;5.37;4.70;;;;;;;13.22;73.75;97662.42;1726505;82;25718;-76
2022/08/12 06:36:23;;;;;;;4.78;4.25;;;;;;;13.32;73.72;97658.67;1726585;83;25751;-77
2022/08/12 06:38:50;;;;;;;5.90;4.75;;;;;;;13.42;73.70;97668.17;1726475;83;27393;-76
2022/08/12 06:44:02;;;;;;;8.25;4.83;;;;;;;13.62;73.80;97660.70;1726358;82;25755;-76
2022/08/12 06:46:30;;;;;;;5.50;4.90;;;;;;;13.70;73.69;97653.61;1726564;83;25722;-76
2022/08/12 06:49:00;;;;;;;6.15;4.70;;;;;;;13.81;73.79;97650.67;1726558;83;25715;-77
2022/08/12 06:51:30;;;;;;;4.75;4.25;;;;;;;13.90;73.99;97656.92;1726545;83;28214;-76
2022/08/12 06:53:59;;;;;;;4.40;4.00;;;;;;;14.03;74.11;97659.48;1726354;83;25791;-76
2022/08/12 06:56:26;;;;;;;5.62;4.72;;;;;;;14.16;73.93;97661.74;1726419;83;25667;-76
2022/08/12 06:58:54;;;;;;;5.33;4.25;;;;;;;14.25;73.89;97657.68;1726552;83;25743;-77
2022/08/12 07:01:21;;;;;;;5.53;4.58;;;;;;;14.37;73.94;97659.36;1726588;83;25935;-76
2022/08/12 07:03:47;;;;;;;5.85;4.75;;;;;;;14.49;73.91;97652.66;1726531;83;28078;-77
2022/08/12 07:06:14;;;;;;;5.15;4.45;;;;;;;14.59;73.92;97651.59;1726270;83;25758;-77
2022/08/12 07:08:42;;;;;;;4.55;4.15;;;;;;;14.73;73.93;97646.24;1726474;83;25616;-77
2022/08/12 07:11:12;;;;;;;4.92;4.50;;;;;;;14.88;73.98;97646.34;1726489;82;25846;-77
2022/08/12 07:13:47;;;;;;;6.40;4.87;;;;;;;15.04;74.29;97645.69;1726517;83;25789;-77
2022/08/12 07:16:17;;;;;;;6.12;5.10;;;;;;;15.20;74.49;97645.01;1726509;82;27394;-77
2022/08/12 07:18:46;;;;;;;6.92;5.00;;;;;;;15.33;74.19;97644.78;1696391;84;25540;-77
2022/08/12 07:21:13;;;;;;;6.70;4.85;;;;;;;15.47;74.07;97648.91;1677756;85;25911;-76
2022/08/12 07:23:41;;;;;;;5.53;5.00;;;;;;;15.62;74.08;97641.66;1658132;85;25895;-77
2022/08/12 07:26:16;;;;;;;5.10;4.33;;;;;;;15.77;74.13;97634.38;1659413;86;25697;-77
2022/08/12 07:28:42;;;;;;;5.20;4.67;;;;;;;15.91;73.75;97639.87;1666125;85;27672;-79
2022/08/12 07:31:10;;;;;;;4.90;4.40;;;;;;;16.08;73.82;97644.02;1687585;85;25820;-77
2022/08/12 07:33:40;;;;;;;5.22;4.15;;;;;;;16.27;73.76;97647.41;1687408;85;25843;-77
2022/08/12 07:36:12;;;;;;;6.70;4.30;;;;;;;16.49;74.08;97640.22;1687510;85;25791;-77
2022/08/12 07:38:44;;;;;;;4.92;4.17;;;;;;;16.74;74.04;97646.72;1687760;85;25762;-76
2022/08/12 07:41:25;;;;;;;4.12;3.72;;;;;;;16.97;73.73;97629.40;1687672;85;27476;-78
2022/08/12 07:43:55;;;;;;;9.45;4.75;;;;;;;17.22;72.98;97625.73;1684766;85;25853;-78
2022/08/12 07:46:30;;;;;;;4.83;3.85;;;;;;;17.53;72.94;97622.39;1687701;85;25854;-78
2022/08/12 07:49:00;;;;;;;5.05;3.77;;;;;;;17.99;72.88;97619.78;1656595;86;25834;-77
2022/08/12 07:51:28;;;;;;;4.15;3.60;;;;;;;18.51;71.77;97615.76;1656651;86;25591;-79
2022/08/12 07:53:58;;;;;;;3.58;3.25;;;;;;;19.04;71.23;97616.33;1656883;86;28265;-78
2022/08/12 07:56:27;;;;;;;5.12;3.20;;;;;;;19.56;70.29;97612.94;1656351;86;25821;-78
2022/08/12 07:58:54;;;;;;;3.60;3.30;;;;;;;20.08;69.78;97604.72;1656556;86;25876;-78
2022/08/12 08:01:21;;;;;;;3.25;2.90;;;;;;;20.58;68.93;97606.02;1656714;86;26289;-79
2022/08/12 08:06:41;;;;;;;4.72;2.90;;;;;;;21.34;67.74;97595.98;1656488;86;27499;-78
2022/08/12 08:09:12;;;;;;;3.70;3.17;;;;;;;21.73;66.69;97603.07;1656571;86;25539;-78
2022/08/12 08:14:27;;;;;;;6.03;3.10;;;;;;;22.31;65.30;97597.12;1656742;85;25714;-78
2022/08/12 08:16:52;;;;;;;3.60;2.98;;;;;;;22.58;65.03;97599.72;1673630;85;25467;-78
2022/08/12 08:19:21;;;;;;;4.15;2.92;;;;;;;22.97;63.89;97604.46;1677115;85;27388;-78
2022/08/12 08:21:47;;;;;;;4.85;2.70;;;;;;;23.24;63.38;97604.81;1677097;85;26655;-78
2022/08/12 08:24:14;;;;;;;3.90;2.80;;;;;;;23.51;62.49;97606.27;1679249;84;25759;-79
2022/08/12 08:26:46;;;;;;;4.22;2.65;;;;;;;23.50;62.15;97610.95;1679636;85;26486;-78
2022/08/12 08:29:16;;;;;;;3.08;2.45;;;;;;;23.46;61.43;97605.72;1679730;85;25747;-78
2022/08/12 08:31:45;;;;;;;2.83;2.47;;;;;;;23.67;61.64;97607.75;1679604;85;27432;-79
2022/08/12 08:34:13;;;;;;;2.50;2.30;;;;;;;24.16;61.54;97599.77;1679487;85;25890;-78
2022/08/12 08:36:41;;;;;;;3.25;2.52;;;;;;;24.64;60.72;97603.32;1679469;85;25945;-78
2022/08/12 08:39:11;;;;;;;2.87;2.27;;;;;;;24.95;60.17;97605.13;1679623;85;26517;-78
2022/08/12 08:44:24;;;;;;;2.55;2.25;;;;;;;25.95;58.72;97596.27;1679430;82;27504;-79
2022/08/12 08:46:50;;;;;;;2.95;2.72;;;;;;;26.37;57.66;97588.23;1731549;82;25695;-80
2022/08/12 08:49:17;;;;;;;4.92;2.72;;;;;;;26.83;56.95;97585.27;1731651;82;25685;-77
2022/08/12 08:51:44;;;;;;;3.15;2.35;;;;;;;27.05;55.39;97578.17;1731178;82;25754;-78
2022/08/12 08:54:14;;;;;;;2.80;2.27;;;;;;;27.14;54.59;97585.98;1731780;82;25742;-79
2022/08/12 08:59:12;;;;;;;2.98;2.33;;;;;;;27.35;53.86;97585.73;1653405;86;25915;-79
2022/08/12 09:01:40;;;;;;;4.12;2.60;;;;;;;27.52;53.65;97587.81;1653543;86;25788;-78
2022/08/12 09:04:11;;;;;;;2.42;2.10;;;;;;;27.51;52.61;97588.38;1653554;86;25722;-79
2022/08/12 09:06:40;;;;;;;4.42;2.30;;;;;;;27.40;52.34;97589.77;1653519;86;25491;-78
2022/08/12 09:09:13;;;;;;;3.00;2.10;;;;;;;27.71;52.07;97587.61;1653443;86;28411;-78
2022/08/12 09:14:24;;;;;;;2.85;2.20;;;;;;;28.29;51.49;97583.24;1653232;86;25915;-80
2022/08/12 09:16:50;;;;;;;2.50;2.30;;;;;;;28.66;50.83;97581.86;1653437;86;25845;-79
2022/08/12 09:19:17;;;;;;;2.58;2.17;;;;;;;28.93;50.09;97585.77;1653408;86;25720;-81
2022/08/12 09:21:47;;;;;;;2.85;2.33;;;;;;;29.16;49.65;97585.04;1653500;86;27393;-80
2022/08/12 09:24:18;;;;;;;2.20;2.05;;;;;;;29.35;49.11;97597.20;1652999;86;26024;-79
2022/08/12 09:26:46;;;;;;;2.50;2.30;;;;;;;29.51;48.30;97601.14;1635755;87;25727;-81
2022/08/12 09:29:14;;;;;;;3.17;2.20;;;;;;;29.59;47.66;97598.91;1635768;87;25781;-79
2022/08/12 09:31:41;;;;;;;2.33;2.08;;;;;;;29.34;46.90;97605.33;1635831;87;25887;-79
2022/08/12 09:34:12;;;;;;;2.20;2.10;;;;;;;29.45;47.05;97601.66;1635779;87;27518;-79
2022/08/12 09:36:40;;;;;;;4.60;2.12;;;;;;;29.36;46.56;97600.22;1664046;84;25320;-78
2022/08/12 09:39:08;;;;;;;3.58;2.10;;;;;;;29.44;46.37;97602.23;1743034;81;25802;-79
2022/08/12 09:41:43;;;;;;;2.58;2.30;;;;;;;29.42;46.29;97603.13;1742983;81;26576;-79
2022/08/12 09:46:57;;;;;;;2.45;2.25;;;;;;;29.59;45.49;97590.56;1682874;85;28534;-79
2022/08/12 09:49:23;;;;;;;3.30;2.60;;;;;;;29.17;45.86;97585.86;1683022;85;25616;-79
2022/08/12 09:51:53;;;;;;;6.17;2.27;;;;;;;29.12;45.67;97586.01;1682993;84;25770;-78
2022/08/12 09:54:24;;;;;;;3.60;2.15;;;;;;;29.17;45.81;97587.25;1683009;85;25825;-78
2022/08/12 09:56:47;;;;;;;3.17;2.37;;;;;;;29.25;45.69;97593.36;1679707;85;25879;-79
2022/08/12 09:59:14;;;;;;;2.50;2.30;;;;;;;29.14;45.72;97592.88;1683275;84;27951;-79
2022/08/12 10:01:41;;;;;;;2.52;2.33;;;;;;;29.26;45.82;97593.61;1683112;85;25731;-80
2022/08/12 10:04:09;;;;;;;4.62;2.22;;;;;;;29.30;45.49;97594.60;1683148;85;25309;-81
2022/08/12 10:06:41;;;;;;;2.75;2.37;;;;;;;29.39;45.37;97599.61;1683086;85;25755;-79
2022/08/12 10:09:08;;;;;;;;;;;;;;;29.35;44.78;97587.47;1685734;84;25779;-80
2022/08/12 10:14:22;;;;;;;3.60;1.90;;;;;;;29.12;45.04;97579.06;1692357;82;26060;-81
2022/08/12 10:16:48;;;;;;;2.58;2.27;;;;;;;29.27;45.07;97580.78;1742883;82;25821;-79
2022/08/12 10:19:17;;;;;;;2.45;2.25;;;;;;;29.46;44.92;97577.70;1743004;82;25832;-79
2022/08/12 10:21:43;;;;;;;3.60;2.40;;;;;;;29.43;44.23;97576.95;1742553;81;25828;-78
2022/08/12 10:24:14;;;;;;;2.80;2.58;;;;;;;29.39;44.28;97574.58;1780326;80;27424;-78
2022/08/12 10:29:45;;;;;;;2.67;2.47;;;;;;;29.50;43.75;97570.88;1793466;80;25844;-78
2022/08/12 10:32:22;;;;;;;5.80;2.50;;;;;;;29.55;43.28;97567.36;1793583;80;25712;-79
2022/08/12 10:34:50;;;;;;;5.37;2.27;;;;;;;29.63;43.18;97567.91;1793598;80;25645;-79
2022/08/12 10:37:17;;;;;;;2.60;2.40;;;;;;;29.87;43.01;97560.96;1793520;80;28077;-79
2022/08/12 10:39:44;;;;;;;2.75;2.55;;;;;;;29.95;42.57;97561.50;1793558;79;25610;-81
2022/08/12 10:45:06;;;;;;;3.52;2.75;;;;;;;30.03;42.38;97555.13;1793396;80;26607;-79
2022/08/12 10:47:36;;;;;;;3.58;2.45;;;;;;;30.10;41.94;97554.02;1793564;80;25793;-80
2022/08/12 10:50:06;;;;;;;4.55;2.87;;;;;;;30.11;41.89;97550.66;1793657;79;28139;-80
2022/08/12 10:52:35;;;;;;;3.37;3.08;;;;;;;30.13;41.55;97553.94;1793458;80;25718;-79
2022/08/12 10:55:00;;;;;;;4.22;2.80;;;;;;;29.95;40.97;97553.14;1756345;81;25676;-78
2022/08/12 10:57:27;;;;;;;5.03;2.33;;;;;;;29.67;40.93;97552.20;1756345;80;26278;-79
2022/08/12 10:59:55;;;;;;;9.00;2.80;;;;;;;29.59;40.87;97551.62;1756297;81;25617;-80
2022/08/12 11:02:27;;;;;;;5.53;3.15;;;;;;;29.50;40.96;97550.84;1756251;81;27438;-77
2022/08/12 11:04:58;;;;;;;3.33;3.02;;;;;;;29.58;41.27;97550.59;1668687;85;34701;-77
2022/08/12 11:07:23;;;;;;;4.47;3.33;;;;;;;29.34;40.72;97553.89;1664011;86;25870;-78
2022/08/12 11:09:50;;;;;;;3.42;3.12;;;;;;;29.36;41.56;97557.13;1668743;85;25759;-77
2022/08/12 11:12:17;;;;;;;3.75;3.25;;;;;;;29.36;41.59;97559.91;1668357;85;25867;-79
2022/08/12 11:14:44;;;;;;;3.67;3.33;;;;;;;29.32;41.42;97552.00;1668707;85;27399;-78
2022/08/12 11:17:13;;;;;;;3.27;2.95;;;;;;;29.17;41.49;97551.94;1668622;85;25829;-79
2022/08/12 11:19:42;;;;;;;4.65;3.30;;;;;;;29.25;41.66;97551.66;1668681;85;25297;-79
2022/08/12 11:22:11;;;;;;;4.20;3.40;;;;;;;29.30;41.39;97548.16;1668618;85;26554;-78
2022/08/12 11:24:38;;;;;;;3.58;3.27;;;;;;;29.35;41.18;97550.75;1668566;85;25861;-78
2022/08/12 11:27:07;;;;;;;3.62;3.30;;;;;;;29.36;41.51;97557.13;1668760;85;28144;-78
2022/08/12 11:29:35;;;;;;;5.95;3.33;;;;;;;29.26;41.15;97554.70;1668529;85;25854;-79
2022/08/12 11:32:01;;;;;;;3.00;2.80;;;;;;;29.24;41.42;97550.03;1668624;85;25767;-78
2022/08/12 11:34:28;;;;;;;3.75;2.98;;;;;;;29.35;41.59;97561.05;1668627;85;26487;-79
2022/08/12 11:37:06;;;;;;;4.80;3.22;;;;;;;29.17;40.74;97551.94;1668632;85;25818;-77
2022/08/12 11:39:33;;;;;;;4.10;3.20;;;;;;;29.09;41.21;97543.61;1602106;89;27416;-78
2022/08/12 11:42:01;;;;;;;6.85;2.75;;;;;;;29.20;41.56;97543.52;1560897;91;25851;-77
2022/08/12 11:44:28;;;;;;;3.02;2.75;;;;;;;29.33;41.31;97545.30;1602309;89;25820;-78
2022/08/12 11:46:56;;;;;;;5.53;2.62;;;;;;;29.24;40.57;97544.47;1560935;91;25849;-80
2022/08/12 11:49:25;;;;;;;2.75;2.50;;;;;;;29.08;40.81;97538.63;1602321;89;25491;-78
2022/08/12 11:51:52;;;;;;;2.47;2.30;;;;;;;29.01;40.34;97537.71;1560980;91;27468;-78
2022/08/12 11:54:19;;;;;;;3.40;3.08;;;;;;;28.98;40.44;97534.80;1602154;89;25576;-78
2022/08/12 11:56:45;;;;;;;3.65;3.35;;;;;;;29.01;40.33;97542.45;1561017;91;25881;-80
2022/08/12 11:59:12;;;;;;;6.37;3.30;;;;;;;29.03;40.76;97539.59;1602386;89;25837;-80
2022/08/12 12:01:38;;;;;;;3.05;2.85;;;;;;;29.07;40.92;97538.38;1593907;87;25798;-78
2022/08/12 12:04:05;;;;;;;3.15;2.80;;;;;;;29.07;41.26;97538.95;1663322;86;27367;-79
2022/08/12 12:06:32;;;;;;;2.80;2.60;;;;;;;28.95;40.35;97534.05;1685042;85;25793;-79
2022/08/12 12:08:58;;;;;;;3.47;3.17;;;;;;;28.91;40.65;97531.10;1685326;85;25917;-79
2022/08/12 12:11:25;;;;;;;4.55;2.85;;;;;;;28.94;40.69;97533.23;1636291;87;25872;-81
2022/08/12 12:13:52;;;;;;;2.90;2.70;;;;;;;28.98;40.52;97527.24;1685091;85;25780;-78
2022/08/12 12:16:19;;;;;;;5.83;3.10;;;;;;;29.02;40.27;97528.23;1685386;85;27986;-82
2022/08/12 12:18:45;;;;;;;3.27;3.08;;;;;;;29.05;40.44;97537.06;1636126;87;25826;-79
2022/08/12 12:21:12;;;;;;;4.33;2.85;;;;;;;29.00;40.13;97531.91;1685301;85;25823;-79
2022/08/12 12:23:38;;;;;;;3.70;3.33;;;;;;;29.03;40.27;97525.70;1681521;84;25809;-79
2022/08/12 12:26:05;;;;;;;6.37;3.45;;;;;;;29.09;40.64;97519.42;1610439;88;25558;-79
2022/08/12 12:28:33;;;;;;;3.52;3.17;;;;;;;29.08;41.13;97519.17;1631505;87;27624;-78
2022/08/12 12:31:01;;;;;;;4.03;3.05;;;;;;;29.09;41.28;97519.98;1666757;86;25534;-78
2022/08/12 12:33:28;;;;;;;3.10;2.72;;;;;;;29.07;40.77;97513.36;1666862;86;25760;-81
2022/08/12 12:35:54;;;;;;;3.85;2.37;;;;;;;28.87;40.08;97518.17;1693865;82;25670;-79
2022/08/12 12:38:21;;;;;;;2.83;2.50;;;;;;;28.75;39.86;97508.26;1731351;82;25675;-79
2022/08/12 12:40:49;;;;;;;3.40;3.10;;;;;;;28.68;40.57;97505.41;1718306;83;28265;-81
2022/08/12 12:43:16;;;;;;;7.05;2.90;;;;;;;28.83;40.57;97512.48;1725752;83;25681;-79
2022/08/12 12:45:45;;;;;;;4.45;2.65;;;;;;;28.75;40.47;97507.69;1725854;83;25688;-80
2022/08/12 12:48:16;;;;;;;3.08;2.77;;;;;;;28.89;40.87;97512.55;1725945;81;25714;-78
2022/08/12 12:50:47;;;;;;;3.27;2.97;;;;;;;28.90;40.91;97504.45;1726163;83;25703;-79
2022/08/12 12:53:20;;;;;;;4.05;2.67;;;;;;;28.86;40.93;97510.41;1725925;83;27478;-79
2022/08/12 12:55:46;;;;;;;2.87;2.67;;;;;;;28.76;40.45;97503.77;1714264;83;25739;-78
2022/08/12 12:58:16;;;;;;;2.45;2.25;;;;;;;28.76;41.16;97502.95;1725780;83;25726;-79
2022/08/12 13:00:44;;;;;;;7.42;2.83;;;;;;;28.74;40.82;97499.11;1725833;83;25649;-79
2022/08/12 13:03:11;;;;;;;3.75;2.65;;;;;;;28.60;40.94;97490.96;1726088;81;25660;-79
2022/08/12 13:05:41;;;;;;;4.62;2.72;;;;;;;28.65;40.93;97496.91;1726045;83;27376;-78
2022/08/12 13:08:26;;;;;;;2.80;2.58;;;;;;;28.77;41.11;97499.03;1718457;83;25798;-80
2022/08/12 13:11:02;;;;;;;2.67;2.47;;;;;;;28.69;40.79;97493.73;1717539;83;25760;-79
2022/08/12 13:13:33;;;;;;;2.95;2.72;;;;;;;28.67;40.93;97486.30;1731783;82;25853;-79
2022/08/12 13:16:03;;;;;;;3.37;3.08;;;;;;;28.53;41.23;97482.28;1658272;86;25468;-79
2022/08/12 13:18:37;;;;;;;6.15;3.08;;;;;;;28.59;41.27;97482.38;1719943;82;27429;-78
2022/08/12 13:21:08;;;;;;;3.30;3.00;;;;;;;28.70;41.82;97480.09;1664102;85;25733;-78
2022/08/12 13:23:34;;;;;;;2.85;2.65;;;;;;;28.71;41.94;97480.34;1664105;85;25872;-79
2022/08/12 13:26:01;;;;;;;3.35;2.98;;;;;;;28.68;41.85;97485.97;1663836;86;26621;-79
2022/08/12 13:28:30;;;;;;;3.42;3.08;;;;;;;28.70;42.08;97477.31;1663953;84;25825;-79
2022/08/12 13:30:59;;;;;;;3.22;3.02;;;;;;;28.65;41.90;97470.52;1664102;86;27521;-79
2022/08/12 13:33:27;;;;;;;3.22;2.90;;;;;;;28.50;41.96;97471.03;1663667;86;25741;-79
2022/08/12 13:35:59;;;;;;;3.75;3.12;;;;;;;28.48;42.13;97469.97;1664151;84;25814;-79
2022/08/12 13:38:41;;;;;;;;;;;;;;;28.50;41.91;97466.87;1637746;87;25897;-79
2022/08/12 13:43:39;;;;;;;4.92;3.15;;;;;;;28.75;42.24;97462.43;1555130;92;27441;-78